Cuprija, Serbia
Current Conditions -  °F | °C
As of 10:00 PM on Saturday 20 Dec 2014 (Local Time) from LYKV Reporting Station
Moderate Fog Moderate Fog  
Wind Chill: 30°   Ceiling: Unl
Heat Index: 30°   Visibility: 0.25mi
Dew Point: 30°   Wind: 3mph
Humidity: 100%   Direction: 260°W
Pressure: 30.15"   Gusts: NA
Location:  43.93°N, 21.38°E
Report Text: LYKV 202000Z 26003KT 220V280 0400 FZFG NSC M01/M01 Q1021 NOSIG
Loading
Personal Weather Stations






























Interactive Weather Map New forecast layout! Learn more

10-Day Weather Forecast

Advertisements
Track Severe Weather on mobile